Time;durP1;ratioP1;P1;durP2;ratioP2;P2;SDS_P1;SDS_P2;PMS_P1;PMS_P2;Temp;Humidity;BMP_temperature;BMP_pressure;BME280_temperature;BME280_humidity;BME280_pressure;Samples;Min_cycle;Max_cycle;Signal;HPM_P1;HPM_P2
2022/01/12 00:00:38;;;;;;;;;;;-1.80;99.90;;;;;;5119928;27;19923;-53
2022/01/12 00:03:05;;;;;;;;;;;-1.90;99.90;;;;;;5120738;27;19973;-47
2022/01/12 00:05:33;;;;;;;;;;;-1.80;99.90;;;;;;5119687;27;19930;-51
2022/01/12 00:08:00;;;;;;;;;;;-1.90;99.90;;;;;;5120066;27;20328;-49
2022/01/12 00:10:27;;;;;;;;;;;-2.20;99.90;;;;;;5120667;27;20257;-50
2022/01/12 00:12:53;;;;;;;;;;;-2.20;99.90;;;;;;5116271;27;19924;-52
2022/01/12 00:15:20;;;;;;;;;;;-2.30;99.90;;;;;;5121061;27;19927;-50
2022/01/12 00:17:47;;;;;;;;;;;-2.40;99.90;;;;;;5117627;27;19928;-50
2022/01/12 00:20:14;;;;;;;;;;;-2.40;99.90;;;;;;5125245;27;19919;-51
2022/01/12 00:22:41;;;;;;;;;;;-2.40;99.90;;;;;;5134043;27;19975;-52
2022/01/12 00:33:15;;;;;;;;;;;-2.40;99.90;;;;;;5115194;27;19919;-48
2022/01/12 00:35:47;;;;;;;;;;;-2.30;99.90;;;;;;5133091;27;19930;-48
2022/01/12 00:38:16;;;;;;;;;;;-2.20;99.90;;;;;;5115040;27;19919;-49
2022/01/12 00:40:44;;;;;;;;;;;-2.40;99.90;;;;;;5133412;27;19923;-50
2022/01/12 00:43:11;;;;;;;;;;;-2.40;99.90;;;;;;5133218;27;20450;-51
2022/01/12 00:45:41;;;;;;;;;;;-2.40;99.90;;;;;;5132989;27;19919;-52
2022/01/12 00:48:09;;;;;;;;;;;-2.50;99.90;;;;;;5114936;27;19926;-47
2022/01/12 00:50:36;;;;;;;;;;;-2.50;99.90;;;;;;5114872;27;19924;-50
2022/01/12 00:53:04;;;;;;;;;;;-2.40;99.90;;;;;;5133199;27;19919;-52
2022/01/12 00:55:31;;;;;;;;;;;-2.40;99.90;;;;;;5132637;27;19931;-48
2022/01/12 00:57:59;;;;;;;;;;;-2.40;99.90;;;;;;5133314;27;20015;-51
2022/01/12 01:00:27;;;;;;;;;;;-2.50;99.90;;;;;;5133279;27;19922;-52
2022/01/12 01:02:54;;;;;;;;;;;-2.60;99.90;;;;;;5131865;27;19985;-48
2022/01/12 01:05:22;;;;;;;;;;;-2.60;99.90;;;;;;5114290;28;19920;-47
2022/01/12 01:07:49;;;;;;;;;;;-2.60;99.90;;;;;;5132893;27;20041;-49
2022/01/12 01:10:27;;;;;;;;;;;-2.70;99.90;;;;;;5114651;27;19961;-48
2022/01/12 01:12:55;;;;;;;;;;;-2.60;99.90;;;;;;5114717;27;19919;-48
2022/01/12 01:15:41;;;;;;;;;;;-2.70;99.90;;;;;;5131361;27;19923;-49
2022/01/12 01:26:27;;;;;;;;;;;-2.60;99.90;;;;;;5113922;28;19919;-51
2022/01/12 01:28:54;;;;;;;;;;;-2.60;99.90;;;;;;5114455;28;19926;-50
2022/01/12 01:31:28;;;;;;;;;;;-2.70;99.90;;;;;;5131577;28;19919;-51
2022/01/12 01:33:56;;;;;;;;;;;-2.60;99.90;;;;;;5114182;28;20375;-50
2022/01/12 01:36:27;;;;;;;;;;;-2.60;99.90;;;;;;5114020;28;20018;-50
2022/01/12 01:38:54;;;;;;;;;;;-2.70;99.90;;;;;;5132728;28;19919;-52
2022/01/12 01:41:21;;;;;;;;;;;-2.60;99.90;;;;;;5133044;28;20006;-48
2022/01/12 01:44:19;;;;;;;;;;;-2.50;99.90;;;;;;5114265;28;19942;-47
2022/01/12 01:54:54;;;;;;;;;;;-2.80;99.90;;;;;;5114349;28;19959;-51
2022/01/12 01:57:26;;;;;;;;;;;-2.90;99.90;;;;;;5130494;28;19919;-54
2022/01/12 01:59:53;;;;;;;;;;;-2.90;99.90;;;;;;5132451;28;19930;-51
2022/01/12 02:02:20;;;;;;;;;;;-2.90;99.90;;;;;;5114196;28;19923;-50
2022/01/12 02:04:47;;;;;;;;;;;-3.00;99.90;;;;;;5131937;27;20006;-49
2022/01/12 02:07:15;;;;;;;;;;;-3.00;99.90;;;;;;5136186;27;19972;-49
2022/01/12 02:09:44;;;;;;;;;;;-3.00;99.90;;;;;;5118020;27;20018;-49
2022/01/12 02:12:27;;;;;;;;;;;-3.00;99.90;;;;;;5118002;27;19919;-52
2022/01/12 02:14:55;;;;;;;;;;;-3.10;99.90;;;;;;5135095;27;20329;-49
2022/01/12 02:17:27;;;;;;;;;;;-3.10;99.90;;;;;;5135938;27;19924;-51
2022/01/12 02:20:23;;;;;;;;;;;-3.10;99.90;;;;;;5117699;27;19926;-50
2022/01/12 02:37:13;;;;;;;;;;;-3.20;99.90;;;;;;5117212;27;20432;-49
2022/01/12 02:39:58;;;;;;;;;;;-3.30;99.90;;;;;;5135426;27;19920;-50
2022/01/12 02:42:26;;;;;;;;;;;-3.30;99.90;;;;;;5117538;27;19919;-51
2022/01/12 02:56:11;;;;;;;;;;;-3.60;99.90;;;;;;5116662;27;19923;-49
2022/01/12 02:58:38;;;;;;;;;;;-3.60;99.90;;;;;;5135359;27;20010;-49
2022/01/12 03:03:53;;;;;;;;;;;-3.70;99.90;;;;;;5135301;27;19927;-49
2022/01/12 03:06:25;;;;;;;;;;;-3.80;99.90;;;;;;5134841;27;19926;-51
2022/01/12 03:08:52;;;;;;;;;;;-3.80;99.90;;;;;;5135341;27;19927;-50
2022/01/12 03:11:20;;;;;;;;;;;-3.90;99.90;;;;;;5116808;27;20268;-49
2022/01/12 03:13:50;;;;;;;;;;;-3.90;99.90;;;;;;5116814;27;19980;-50
2022/01/12 03:16:20;;;;;;;;;;;-3.90;99.90;;;;;;5115090;27;20306;-49
2022/01/12 03:18:49;;;;;;;;;;;-3.90;99.90;;;;;;5116644;27;20395;-50
2022/01/12 03:21:17;;;;;;;;;;;-4.00;99.90;;;;;;5116472;27;20039;-49
2022/01/12 03:23:44;;;;;;;;;;;-4.00;99.90;;;;;;5116534;27;19920;-50
2022/01/12 03:26:11;;;;;;;;;;;-4.00;99.90;;;;;;5116205;27;19958;-50
2022/01/12 03:28:40;;;;;;;;;;;-4.00;99.90;;;;;;5116518;27;19919;-49
2022/01/12 03:31:14;;;;;;;;;;;-4.10;99.90;;;;;;5116512;27;20014;-49
2022/01/12 03:38:51;;;;;;;;;;;-4.00;99.90;;;;;;5134848;27;19923;-49
2022/01/12 03:41:18;;;;;;;;;;;-4.00;99.90;;;;;;5134747;27;19923;-50
2022/01/12 03:43:50;;;;;;;;;;;-4.00;99.90;;;;;;5134612;27;20010;-50
2022/01/12 03:46:18;;;;;;;;;;;-4.00;99.90;;;;;;5115760;27;19926;-50
2022/01/12 03:48:45;;;;;;;;;;;-4.10;99.90;;;;;;5115933;27;19984;-49
2022/01/12 03:51:12;;;;;;;;;;;-4.10;99.90;;;;;;5116150;27;19923;-50
2022/01/12 03:53:39;;;;;;;;;;;-4.10;99.90;;;;;;5116084;27;19919;-50
2022/01/12 03:56:06;;;;;;;;;;;-4.10;99.90;;;;;;5132676;27;20442;-50
2022/01/12 03:58:33;;;;;;;;;;;-4.20;99.90;;;;;;5115859;27;19962;-49
2022/01/12 04:01:00;;;;;;;;;;;-4.30;99.90;;;;;;5134240;27;19919;-49
2022/01/12 04:03:29;;;;;;;;;;;-4.40;99.90;;;;;;5132991;27;20298;-50
2022/01/12 04:08:42;;;;;;;;;;;-4.50;99.90;;;;;;5094408;28;19920;-49
2022/01/12 04:11:08;;;;;;;;;;;-4.50;99.90;;;;;;5126529;27;20358;-50
2022/01/12 04:13:35;;;;;;;;;;;-4.60;99.90;;;;;;5107495;27;19965;-49
2022/01/12 04:16:05;;;;;;;;;;;-4.60;99.90;;;;;;5100169;27;20041;-51
2022/01/12 04:18:33;;;;;;;;;;;-4.70;99.90;;;;;;5107559;27;20022;-50
2022/01/12 04:21:03;;;;;;;;;;;-4.70;99.90;;;;;;5102126;27;19919;-49
2022/01/12 04:23:30;;;;;;;;;;;-4.70;99.90;;;;;;5112331;27;19919;-49
2022/01/12 04:26:00;;;;;;;;;;;-4.70;99.90;;;;;;5120234;27;20015;-49
2022/01/12 04:28:28;;;;;;;;;;;-4.70;99.90;;;;;;5124858;27;19919;-52
2022/01/12 04:30:56;;;;;;;;;;;-4.70;99.90;;;;;;5117598;27;19920;-49
2022/01/12 04:33:23;;;;;;;;;;;-4.70;99.90;;;;;;5098143;28;19927;-49
2022/01/12 04:35:56;;;;;;;;;;;-4.70;99.90;;;;;;5108528;22;19920;-58
2022/01/12 04:38:24;;;;;;;;;;;-4.70;99.90;;;;;;5093833;28;20329;-56
2022/01/12 04:40:51;;;;;;;;;;;-4.70;99.90;;;;;;5108911;28;19981;-57
2022/01/12 04:43:19;;;;;;;;;;;-4.80;99.90;;;;;;5094564;28;20384;-56
2022/01/12 04:46:08;;;;;;;;;;;-4.90;99.90;;;;;;5090194;28;20585;-57
2022/01/12 04:48:37;;;;;;;;;;;-4.90;99.90;;;;;;5091899;28;19927;-57
2022/01/12 04:51:04;;;;;;;;;;;-5.00;99.90;;;;;;5076572;28;19920;-58
2022/01/12 04:53:31;;;;;;;;;;;-5.00;99.90;;;;;;5092410;28;19930;-56
2022/01/12 04:56:00;;;;;;;;;;;-5.10;99.90;;;;;;5073905;28;19920;-57
2022/01/12 04:58:27;;;;;;;;;;;-5.10;99.90;;;;;;5066339;28;20015;-58
2022/01/12 05:01:03;;;;;;;;;;;-5.10;99.90;;;;;;5064633;28;20376;-58
2022/01/12 05:06:36;;;;;;;;;;;-5.10;99.90;;;;;;5073936;28;19970;-59
2022/01/12 05:09:28;;;;;;;;;;;-5.10;99.90;;;;;;5060880;28;20352;-58
2022/01/12 05:14:50;;;;;;;;;;;-5.00;99.90;;;;;;5025868;28;19920;-58
2022/01/12 05:17:17;;;;;;;;;;;-5.10;99.90;;;;;;5075952;28;19920;-58
2022/01/12 05:19:44;;;;;;;;;;;-5.10;99.90;;;;;;5065326;28;19973;-59
2022/01/12 05:22:12;;;;;;;;;;;-5.00;99.90;;;;;;5075796;28;19922;-58
2022/01/12 05:24:38;;;;;;;;;;;-5.00;99.90;;;;;;5071610;28;19935;-58
2022/01/12 05:27:24;;;;;;;;;;;-5.00;99.90;;;;;;5085009;28;20015;-57
2022/01/12 05:29:52;;;;;;;;;;;-5.00;99.90;;;;;;5112466;28;19959;-58
2022/01/12 05:32:19;;;;;;;;;;;-5.10;99.90;;;;;;5098945;28;19966;-56
2022/01/12 05:34:46;;;;;;;;;;;-5.10;99.90;;;;;;5064982;28;19920;-58
2022/01/12 05:37:13;;;;;;;;;;;-5.10;99.90;;;;;;5075296;28;19927;-58
2022/01/12 05:39:41;;;;;;;;;;;-5.10;99.90;;;;;;5070196;28;19920;-57
2022/01/12 05:42:25;;;;;;;;;;;-5.20;99.90;;;;;;5079996;28;19927;-58
2022/01/12 05:44:52;;;;;;;;;;;-5.20;99.90;;;;;;5085931;28;20298;-58
2022/01/12 05:47:36;;;;;;;;;;;-5.30;99.90;;;;;;5092895;28;19920;-58
2022/01/12 05:50:03;;;;;;;;;;;-5.40;99.90;;;;;;5067943;28;19921;-58
2022/01/12 05:52:30;;;;;;;;;;;-5.40;99.90;;;;;;5072351;28;19924;-58
2022/01/12 05:54:56;;;;;;;;;;;-5.30;99.90;;;;;;5093443;28;19920;-58
2022/01/12 05:57:25;;;;;;;;;;;-5.30;99.90;;;;;;5082486;28;19920;-57
2022/01/12 05:59:52;;;;;;;;;;;-5.30;99.90;;;;;;5114431;28;19920;-57
2022/01/12 06:02:19;;;;;;;;;;;-5.30;99.90;;;;;;5085612;28;19920;-57
2022/01/12 06:04:46;;;;;;;;;;;-5.30;99.90;;;;;;5070209;28;20323;-57
2022/01/12 06:07:13;;;;;;;;;;;-5.30;99.90;;;;;;5089704;28;19920;-58
2022/01/12 06:09:40;;;;;;;;;;;-5.40;99.90;;;;;;5077846;28;20027;-57
2022/01/12 06:12:08;;;;;;;;;;;-5.40;99.90;;;;;;5073503;28;19942;-58
2022/01/12 06:14:36;;;;;;;;;;;-5.40;99.90;;;;;;5073646;28;19977;-57
2022/01/12 06:17:03;;;;;;;;;;;-5.40;99.90;;;;;;5074691;28;19927;-57
2022/01/12 06:19:30;;;;;;;;;;;-5.30;99.90;;;;;;5073754;28;20366;-56
2022/01/12 06:22:08;;;;;;;;;;;-5.20;99.90;;;;;;5073722;28;20346;-57
2022/01/12 06:24:35;;;;;;;;;;;-5.20;99.90;;;;;;5074406;28;19927;-57
2022/01/12 06:27:03;;;;;;;;;;;-5.10;99.90;;;;;;5074372;28;19924;-56
2022/01/12 06:32:08;;;;;;;;;;;-5.10;99.90;;;;;;5079486;28;19920;-57
2022/01/12 06:34:35;;;;;;;;;;;-5.10;99.90;;;;;;5094836;28;19920;-55
2022/01/12 06:37:02;;;;;;;;;;;-5.20;99.90;;;;;;5076509;28;19962;-57
2022/01/12 06:39:29;;;;;;;;;;;-5.20;99.90;;;;;;5076602;28;19928;-57
2022/01/12 06:41:56;;;;;;;;;;;-5.20;99.90;;;;;;5094605;28;20042;-56
2022/01/12 06:44:27;;;;;;;;;;;-5.20;99.90;;;;;;5076621;28;19957;-56
2022/01/12 06:46:56;;;;;;;;;;;-5.20;99.90;;;;;;5093514;28;19973;-57
2022/01/12 06:49:23;;;;;;;;;;;-5.20;99.90;;;;;;5076214;28;19919;-57
2022/01/12 06:51:53;;;;;;;;;;;-5.20;99.90;;;;;;5074798;28;19920;-57
2022/01/12 06:54:20;;;;;;;;;;;-5.10;99.90;;;;;;5074848;28;19959;-57
2022/01/12 06:56:47;;;;;;;;;;;-5.00;99.90;;;;;;5074872;28;19923;-57
2022/01/12 06:59:14;;;;;;;;;;;-5.00;99.90;;;;;;5075085;28;20368;-57
2022/01/12 07:01:41;;;;;;;;;;;-5.00;99.90;;;;;;5075187;28;19920;-54
2022/01/12 07:04:10;;;;;;;;;;;-5.00;99.90;;;;;;5075298;28;20022;-55
2022/01/12 07:06:37;;;;;;;;;;;-5.20;99.90;;;;;;5075187;28;20010;-56
2022/01/12 07:09:04;;;;;;;;;;;-5.30;99.90;;;;;;5076129;28;20320;-54
2022/01/12 07:12:10;;;;;;;;;;;-5.50;99.90;;;;;;5078539;28;19931;-54
2022/01/12 07:14:38;;;;;;;;;;;-5.60;99.90;;;;;;5075957;28;20420;-56
2022/01/12 07:17:07;;;;;;;;;;;-5.60;99.90;;;;;;5075625;28;19935;-54
2022/01/12 07:19:34;;;;;;;;;;;-5.70;99.90;;;;;;5075946;28;20385;-55
2022/01/12 07:22:00;;;;;;;;;;;-5.70;99.90;;;;;;5075870;28;19926;-56
2022/01/12 07:24:27;;;;;;;;;;;-5.70;99.90;;;;;;5094145;28;19920;-55
2022/01/12 07:26:54;;;;;;;;;;;-5.70;99.90;;;;;;5093704;28;19927;-56
2022/01/12 07:29:21;;;;;;;;;;;-5.70;99.90;;;;;;5094202;28;20295;-56
2022/01/12 07:31:48;;;;;;;;;;;-5.70;99.90;;;;;;5094013;28;19920;-53
2022/01/12 07:34:15;;;;;;;;;;;-5.60;99.90;;;;;;5093756;28;20368;-56
2022/01/12 07:36:42;;;;;;;;;;;-5.70;99.90;;;;;;5093376;28;19974;-54
2022/01/12 07:39:09;;;;;;;;;;;-5.70;99.90;;;;;;5093941;28;19927;-55
2022/01/12 07:41:36;;;;;;;;;;;-5.60;99.90;;;;;;5093793;28;19931;-55
2022/01/12 07:44:03;;;;;;;;;;;-5.60;99.90;;;;;;5093658;28;19989;-56
2022/01/12 07:46:30;;;;;;;;;;;-5.60;99.90;;;;;;5093059;28;19920;-57
2022/01/12 07:48:57;;;;;;;;;;;-5.50;99.90;;;;;;5093674;28;19920;-55
2022/01/12 07:51:24;;;;;;;;;;;-5.50;99.90;;;;;;5093618;28;19970;-55
2022/01/12 07:53:51;;;;;;;;;;;-5.50;99.90;;;;;;5093477;28;20434;-55
2022/01/12 07:56:18;;;;;;;;;;;-5.50;99.90;;;;;;5092841;28;20446;-56
2022/01/12 07:58:45;;;;;;;;;;;-5.40;99.90;;;;;;5093462;28;19977;-55
2022/01/12 08:01:12;;;;;;;;;;;-5.40;99.90;;;;;;5093527;28;20337;-53
2022/01/12 08:03:39;;;;;;;;;;;-5.30;99.90;;;;;;5092966;28;20303;-54
2022/01/12 08:06:06;;;;;;;;;;;-5.40;99.90;;;;;;5092829;28;19920;-55
2022/01/12 08:08:33;;;;;;;;;;;-5.30;99.90;;;;;;5093076;28;19920;-55
2022/01/12 08:11:00;;;;;;;;;;;-5.40;99.90;;;;;;5093142;28;19937;-57
2022/01/12 08:13:27;;;;;;;;;;;-5.40;99.90;;;;;;5093192;28;19920;-55
2022/01/12 08:15:54;;;;;;;;;;;-5.40;99.90;;;;;;5092556;28;19970;-53
2022/01/12 08:18:20;;;;;;;;;;;-5.40;99.90;;;;;;5093042;28;20011;-55
2022/01/12 08:20:47;;;;;;;;;;;-5.50;99.90;;;;;;5093087;28;19973;-56
2022/01/12 08:23:14;;;;;;;;;;;-5.60;99.90;;;;;;5092855;28;20466;-55
2022/01/12 08:25:41;;;;;;;;;;;-5.60;99.90;;;;;;5092292;28;19945;-56
2022/01/12 08:28:08;;;;;;;;;;;-5.50;99.90;;;;;;5092860;28;19920;-56
2022/01/12 08:30:35;;;;;;;;;;;-5.50;99.90;;;;;;5092888;28;19966;-53
2022/01/12 08:33:02;;;;;;;;;;;-5.50;99.90;;;;;;5092869;28;19920;-57
2022/01/12 08:35:30;;;;;;;;;;;-5.40;99.90;;;;;;5092189;28;19965;-56
2022/01/12 08:37:57;;;;;;;;;;;-5.30;99.90;;;;;;5092578;28;19920;-57
2022/01/12 08:40:24;;;;;;;;;;;-5.20;99.90;;;;;;5092558;28;19920;-56
2022/01/12 08:42:51;;;;;;;;;;;-5.20;99.90;;;;;;5092672;28;19934;-57
2022/01/12 08:45:18;;;;;;;;;;;-5.10;99.90;;;;;;5092079;28;19920;-57
2022/01/12 08:47:45;;;;;;;;;;;-5.00;99.90;;;;;;5092476;28;19920;-58
2022/01/12 08:50:12;;;;;;;;;;;-4.80;99.90;;;;;;5092518;28;20010;-58
2022/01/12 08:52:44;;;;;;;;;;;-4.70;99.90;;;;;;5092394;28;19931;-56
2022/01/12 08:55:12;;;;;;;;;;;-4.40;99.90;;;;;;5092060;28;19920;-57
2022/01/12 08:57:39;;;;;;;;;;;-4.30;99.90;;;;;;5092700;28;20357;-57
2022/01/12 09:00:07;;;;;;;;;;;-4.20;99.90;;;;;;5092342;28;19919;-57
2022/01/12 09:02:34;;;;;;;;;;;-4.20;99.90;;;;;;5092226;28;19963;-57
2022/01/12 09:05:02;;;;;;;;;;;-4.10;99.90;;;;;;5092079;28;19920;-56
2022/01/12 09:07:29;;;;;;;;;;;-4.00;99.90;;;;;;5091921;28;19924;-57
2022/01/12 09:09:56;;;;;;;;;;;-4.00;99.90;;;;;;5092226;28;20331;-57
2022/01/12 09:12:24;;;;;;;;;;;-3.90;99.90;;;;;;5092122;28;19920;-57
2022/01/12 09:14:53;;;;;;;;;;;-3.90;99.90;;;;;;5074260;28;19970;-57
2022/01/12 09:17:21;;;;;;;;;;;-3.80;99.90;;;;;;5091717;28;19927;-57
2022/01/12 09:19:48;;;;;;;;;;;-3.70;99.90;;;;;;5092033;28;19924;-57
2022/01/12 09:22:14;;;;;;;;;;;-3.70;99.90;;;;;;5092057;28;19920;-57
2022/01/12 09:24:42;;;;;;;;;;;-3.70;99.90;;;;;;5092189;28;20523;-57
2022/01/12 09:27:09;;;;;;;;;;;-3.60;99.90;;;;;;5091698;28;20018;-57
2022/01/12 09:29:36;;;;;;;;;;;-3.60;99.90;;;;;;5092012;28;19920;-57
2022/01/12 09:32:03;;;;;;;;;;;-3.60;99.90;;;;;;5091922;28;20407;-57
2022/01/12 09:34:30;;;;;;;;;;;-3.50;99.90;;;;;;5091691;28;19986;-57
2022/01/12 09:36:57;;;;;;;;;;;-3.40;99.90;;;;;;5091683;28;19970;-57
2022/01/12 09:39:23;;;;;;;;;;;-3.20;99.90;;;;;;5092604;28;19920;-59
2022/01/12 09:41:50;;;;;;;;;;;-3.10;99.90;;;;;;5091883;28;19951;-57
2022/01/12 09:44:18;;;;;;;;;;;-2.90;99.90;;;;;;5091582;28;19920;-57
2022/01/12 09:46:46;;;;;;;;;;;-3.00;99.90;;;;;;5091299;28;19970;-59
2022/01/12 09:49:13;;;;;;;;;;;-2.80;99.90;;;;;;5092101;28;19943;-59
2022/01/12 09:51:40;;;;;;;;;;;-2.80;99.90;;;;;;5091816;28;19951;-57
2022/01/12 09:54:06;;;;;;;;;;;-2.90;99.90;;;;;;5091800;28;19920;-57
2022/01/12 09:56:33;;;;;;;;;;;-2.90;99.90;;;;;;5091190;28;19971;-57
2022/01/12 09:59:06;;;;;;;;;;;-2.80;99.90;;;;;;5073741;28;19920;-56
2022/01/12 10:01:34;;;;;;;;;;;-2.70;99.90;;;;;;5091717;28;19920;-58
2022/01/12 10:04:09;;;;;;;;;;;-2.70;99.90;;;;;;5091639;28;20372;-58
2022/01/12 10:06:37;;;;;;;;;;;-2.60;99.90;;;;;;5091183;28;20018;-56
2022/01/12 10:09:04;;;;;;;;;;;-2.70;99.90;;;;;;5091463;28;19927;-56
2022/01/12 10:11:31;;;;;;;;;;;-2.50;99.90;;;;;;5091787;28;19920;-57
2022/01/12 10:14:00;;;;;;;;;;;-2.40;99.90;;;;;;5073353;28;20288;-57
2022/01/12 10:16:26;;;;;;;;;;;-2.40;99.90;;;;;;5091214;28;19920;-58
2022/01/12 10:18:55;;;;;;;;;;;-2.30;99.90;;;;;;5091279;28;19966;-57
2022/01/12 10:21:25;;;;;;;;;;;-2.20;99.90;;;;;;5091594;28;20419;-57
2022/01/12 10:24:06;;;;;;;;;;;-2.10;99.90;;;;;;5091622;28;19973;-57
2022/01/12 10:26:36;;;;;;;;;;;-2.00;99.90;;;;;;5093027;28;20352;-59
2022/01/12 10:29:06;;;;;;;;;;;-1.90;99.90;;;;;;5076985;28;19924;-58
2022/01/12 10:31:43;;;;;;;;;;;-1.80;99.90;;;;;;5095005;28;20381;-58
2022/01/12 10:34:15;;;;;;;;;;;-1.80;99.90;;;;;;5095069;28;19924;-55
2022/01/12 10:36:43;;;;;;;;;;;-1.80;99.90;;;;;;5125708;22;19968;-52
2022/01/12 10:39:11;;;;;;;;;;;-1.70;99.90;;;;;;5115010;28;20365;-49
2022/01/12 10:41:55;;;;;;;;;;;-1.70;99.90;;;;;;5115169;28;19961;-51
2022/01/12 10:44:23;;;;;;;;;;;-1.70;99.90;;;;;;5114280;28;19926;-49
2022/01/12 10:46:50;;;;;;;;;;;-1.60;99.90;;;;;;5114478;28;19965;-50
2022/01/12 10:49:19;;;;;;;;;;;-1.50;99.90;;;;;;5115124;28;19920;-49
2022/01/12 10:51:53;;;;;;;;;;;-1.50;99.90;;;;;;5115041;28;19965;-49
2022/01/12 10:54:20;;;;;;;;;;;-1.40;99.90;;;;;;5115149;28;19980;-50
2022/01/12 10:56:46;;;;;;;;;;;-1.40;99.90;;;;;;5114406;28;19924;-50
2022/01/12 10:59:17;;;;;;;;;;;-1.40;99.90;;;;;;5114984;28;20349;-48
2022/01/12 11:01:44;;;;;;;;;;;-1.30;99.90;;;;;;5114631;28;19919;-49
2022/01/12 11:04:11;;;;;;;;;;;-1.20;99.90;;;;;;5114885;28;19920;-49
2022/01/12 11:06:40;;;;;;;;;;;-1.10;99.90;;;;;;5114457;28;19988;-50
2022/01/12 11:09:06;;;;;;;;;;;-1.10;99.90;;;;;;5114871;28;19919;-50
2022/01/12 11:11:34;;;;;;;;;;;-1.00;99.90;;;;;;5114630;28;19919;-49
2022/01/12 11:14:01;;;;;;;;;;;-0.90;99.90;;;;;;5114810;28;20440;-53
2022/01/12 11:16:28;;;;;;;;;;;-0.90;99.90;;;;;;5113793;28;19920;-51
2022/01/12 11:18:55;;;;;;;;;;;-0.80;99.90;;;;;;5106429;28;20487;-49
2022/01/12 11:21:41;;;;;;;;;;;-0.80;99.90;;;;;;5094374;28;19924;-49
2022/01/12 11:24:12;;;;;;;;;;;-0.80;99.90;;;;;;5094205;28;20407;-52
2022/01/12 11:26:46;;;;;;;;;;;-0.70;99.90;;;;;;5093632;28;20315;-52
2022/01/12 11:29:13;;;;;;;;;;;-0.70;99.90;;;;;;5094016;28;19926;-49
2022/01/12 11:31:40;;;;;;;;;;;-0.60;99.90;;;;;;5093791;28;20011;-50
2022/01/12 11:34:16;;;;;;;;;;;-0.50;99.90;;;;;;5093992;28;19928;-49
2022/01/12 11:36:43;;;;;;;;;;;-0.50;99.90;;;;;;5092944;28;19920;-51
2022/01/12 11:39:11;;;;;;;;;;;-0.40;99.90;;;;;;5075389;28;19920;-50
2022/01/12 11:41:39;;;;;;;;;;;-0.40;99.90;;;;;;5093775;28;19920;-49
2022/01/12 11:44:12;;;;;;;;;;;-0.20;99.90;;;;;;5093758;28;19973;-51
2022/01/12 11:46:59;;;;;;;;;;;0.00;99.90;;;;;;5093143;28;19930;-50
2022/01/12 11:49:29;;;;;;;;;;;0.10;99.90;;;;;;5093620;28;20023;-49
2022/01/12 11:51:57;;;;;;;;;;;0.20;99.90;;;;;;5093625;28;20014;-51
2022/01/12 11:54:30;;;;;;;;;;;0.50;99.90;;;;;;5093375;28;19923;-51
2022/01/12 11:56:59;;;;;;;;;;;0.70;99.90;;;;;;5093414;28;19919;-49
2022/01/12 11:59:30;;;;;;;;;;;0.80;99.90;;;;;;5093703;28;19930;-50
2022/01/12 12:02:09;;;;;;;;;;;1.00;99.90;;;;;;5093415;28;19920;-50
2022/01/12 12:04:36;;;;;;;;;;;1.10;99.90;;;;;;5093335;28;19920;-49
2022/01/12 12:07:04;;;;;;;;;;;1.00;99.90;;;;;;5092740;28;20377;-49
2022/01/12 12:09:42;;;;;;;;;;;0.80;99.90;;;;;;5093085;28;19926;-52
2022/01/12 12:12:10;;;;;;;;;;;0.80;99.90;;;;;;5093224;28;19920;-50
2022/01/12 12:14:37;;;;;;;;;;;0.70;99.90;;;;;;5093063;28;19999;-49
2022/01/12 12:17:04;;;;;;;;;;;0.60;99.90;;;;;;5092801;28;20501;-49
2022/01/12 12:19:35;;;;;;;;;;;0.60;99.90;;;;;;5093211;28;20281;-50
2022/01/12 12:22:06;;;;;;;;;;;0.40;99.90;;;;;;5093111;28;19924;-50
2022/01/12 12:24:33;;;;;;;;;;;0.30;99.90;;;;;;5092710;28;19919;-49
2022/01/12 12:27:01;;;;;;;;;;;0.30;99.90;;;;;;5092560;28;19920;-51
2022/01/12 12:29:28;;;;;;;;;;;0.10;99.90;;;;;;5092779;28;20299;-52
2022/01/12 12:31:56;;;;;;;;;;;0.20;99.90;;;;;;5092773;28;19923;-49
2022/01/12 12:34:24;;;;;;;;;;;0.30;99.90;;;;;;5093155;28;20265;-49
2022/01/12 12:36:55;;;;;;;;;;;0.40;99.90;;;;;;5092204;28;19928;-49
2022/01/12 12:39:22;;;;;;;;;;;0.50;99.90;;;;;;5092509;28;20015;-48
2022/01/12 12:41:49;;;;;;;;;;;0.50;99.90;;;;;;5092567;28;19930;-49
2022/01/12 12:44:29;;;;;;;;;;;0.60;99.90;;;;;;5092693;28;19951;-49
2022/01/12 12:47:10;;;;;;;;;;;0.50;99.90;;;;;;5092205;28;19920;-51
2022/01/12 12:58:04;;;;;;;;;;;0.60;99.90;;;;;;4987504;28;20455;-53
2022/01/12 13:05:12;;;;;;;;;;;0.50;99.90;;;;;;5006280;28;19928;-50
2022/01/12 13:07:42;;;;;;;;;;;0.50;99.90;;;;;;5009771;28;19936;-49
2022/01/12 13:10:19;;;;;;;;;;;0.60;99.90;;;;;;5048575;28;19924;-50
2022/01/12 13:12:47;;;;;;;;;;;0.70;99.90;;;;;;5092298;28;19924;-49
2022/01/12 13:15:18;;;;;;;;;;;0.70;99.90;;;;;;5091369;28;19934;-51
2022/01/12 13:17:45;;;;;;;;;;;0.80;99.90;;;;;;5092301;28;19920;-49
2022/01/12 13:22:47;;;;;;;;;;;0.80;99.90;;;;;;5092200;28;19966;-49
2022/01/12 13:25:15;;;;;;;;;;;0.70;99.90;;;;;;5091721;28;19920;-49
2022/01/12 13:27:46;;;;;;;;;;;0.70;99.90;;;;;;5091884;28;20406;-50
2022/01/12 13:30:25;;;;;;;;;;;0.70;99.90;;;;;;5092119;28;19920;-50
2022/01/12 13:32:53;;;;;;;;;;;0.60;99.90;;;;;;5091998;28;19973;-50
2022/01/12 13:35:28;;;;;;;;;;;0.70;99.90;;;;;;5091568;28;19924;-51
2022/01/12 13:37:57;;;;;;;;;;;0.70;99.90;;;;;;5091973;28;19966;-49
2022/01/12 13:40:41;;;;;;;;;;;0.70;99.90;;;;;;5091739;28;19920;-49
2022/01/12 13:43:08;;;;;;;;;;;0.60;99.90;;;;;;5091927;28;20432;-49
2022/01/12 13:45:45;;;;;;;;;;;0.70;99.90;;;;;;5090041;28;19920;-52
2022/01/12 13:48:15;;;;;;;;;;;0.70;99.90;;;;;;5091924;28;19920;-51
2022/01/12 13:50:49;;;;;;;;;;;0.70;99.90;;;;;;5091787;28;19989;-50
2022/01/12 13:53:16;;;;;;;;;;;0.70;99.90;;;;;;5091715;28;19973;-49
2022/01/12 13:55:53;;;;;;;;;;;0.70;99.90;;;;;;5091284;28;19923;-49
2022/01/12 13:58:24;;;;;;;;;;;0.70;99.90;;;;;;5091702;28;19920;-53
2022/01/12 14:00:58;;;;;;;;;;;0.70;99.90;;;;;;5092898;28;20294;-49
2022/01/12 14:03:25;;;;;;;;;;;0.70;99.90;;;;;;5095897;28;19920;-50
2022/01/12 14:05:58;;;;;;;;;;;0.60;99.90;;;;;;5095278;28;19920;-50
2022/01/12 14:08:40;;;;;;;;;;;0.60;99.90;;;;;;5095560;28;20345;-52
2022/01/12 14:11:07;;;;;;;;;;;0.50;99.90;;;;;;5095655;28;19973;-51
2022/01/12 14:13:39;;;;;;;;;;;0.50;99.90;;;;;;5095332;28;19934;-53
2022/01/12 14:16:07;;;;;;;;;;;0.40;99.90;;;;;;5094910;28;20292;-50
2022/01/12 14:18:34;;;;;;;;;;;0.40;99.90;;;;;;5095397;28;19969;-50
2022/01/12 14:21:11;;;;;;;;;;;0.30;99.90;;;;;;5095386;28;19927;-52
2022/01/12 14:23:38;;;;;;;;;;;0.30;99.90;;;;;;5077196;28;20295;-50
2022/01/12 14:26:05;;;;;;;;;;;0.20;99.90;;;;;;5094843;28;19943;-51
2022/01/12 14:28:32;;;;;;;;;;;0.10;99.90;;;;;;5095039;28;19924;-51
2022/01/12 14:30:59;;;;;;;;;;;0.00;99.90;;;;;;5095209;28;19943;-49
2022/01/12 14:33:29;;;;;;;;;;;-0.10;99.90;;;;;;5095066;28;19924;-50
2022/01/12 14:35:56;;;;;;;;;;;-0.20;99.90;;;;;;5094405;28;19919;-52
2022/01/12 14:38:23;;;;;;;;;;;-0.20;99.90;;;;;;5094981;28;19920;-49
2022/01/12 14:40:50;;;;;;;;;;;-0.20;99.90;;;;;;5094928;28;19928;-50
2022/01/12 14:43:17;;;;;;;;;;;-0.20;99.90;;;;;;5094989;28;20014;-50
2022/01/12 14:45:44;;;;;;;;;;;-0.20;99.90;;;;;;5094260;28;19931;-51
2022/01/12 14:48:12;;;;;;;;;;;-0.20;99.90;;;;;;5094831;28;20450;-49
2022/01/12 14:50:39;;;;;;;;;;;-0.30;99.90;;;;;;5094750;28;19950;-50
2022/01/12 14:53:07;;;;;;;;;;;-0.30;99.90;;;;;;5094813;28;19927;-49
2022/01/12 14:55:45;;;;;;;;;;;-0.30;99.90;;;;;;5094298;28;19928;-50
2022/01/12 14:58:12;;;;;;;;;;;-0.40;99.90;;;;;;5094649;28;19926;-49
2022/01/12 15:00:39;;;;;;;;;;;-0.50;99.90;;;;;;5094486;28;19969;-50
2022/01/12 15:03:07;;;;;;;;;;;-0.70;99.90;;;;;;5094655;28;20379;-52
2022/01/12 15:05:34;;;;;;;;;;;-0.80;99.90;;;;;;5094042;28;19920;-50
2022/01/12 15:08:02;;;;;;;;;;;-0.80;99.90;;;;;;5094252;28;19920;-49
2022/01/12 15:10:29;;;;;;;;;;;-0.90;99.90;;;;;;5094169;28;20384;-49
2022/01/12 15:13:03;;;;;;;;;;;-0.90;99.90;;;;;;5094283;28;20007;-50
2022/01/12 15:15:32;;;;;;;;;;;-1.00;99.90;;;;;;5093840;28;19927;-49
2022/01/12 15:17:59;;;;;;;;;;;-1.10;99.90;;;;;;5094233;28;19924;-49
2022/01/12 15:20:28;;;;;;;;;;;-1.20;99.90;;;;;;5094274;28;20000;-49
2022/01/12 15:22:55;;;;;;;;;;;-1.20;99.90;;;;;;5094051;28;19924;-49
2022/01/12 15:25:24;;;;;;;;;;;-1.30;99.90;;;;;;5093664;28;19920;-49
2022/01/12 15:27:51;;;;;;;;;;;-1.30;99.90;;;;;;5094037;28;19920;-49
2022/01/12 15:30:19;;;;;;;;;;;-1.30;99.90;;;;;;5094374;28;19981;-51
2022/01/12 15:32:47;;;;;;;;;;;-1.40;99.90;;;;;;5093872;28;19959;-49
2022/01/12 15:35:19;;;;;;;;;;;-1.40;99.90;;;;;;5093272;28;19920;-52
2022/01/12 15:37:46;;;;;;;;;;;-1.50;99.90;;;;;;5093980;28;20042;-48
2022/01/12 15:40:13;;;;;;;;;;;-1.50;99.90;;;;;;5093847;28;20036;-50
2022/01/12 15:42:40;;;;;;;;;;;-1.50;99.90;;;;;;5093734;28;20006;-49
2022/01/12 15:45:07;;;;;;;;;;;-1.50;99.90;;;;;;5093410;28;20440;-53
2022/01/12 15:47:35;;;;;;;;;;;-1.50;99.90;;;;;;5093411;28;20381;-51
2022/01/12 15:50:05;;;;;;;;;;;-1.60;99.90;;;;;;5093545;28;19924;-49
2022/01/12 15:52:32;;;;;;;;;;;-1.60;99.90;;;;;;5093641;28;19930;-51
2022/01/12 15:54:58;;;;;;;;;;;-1.60;99.90;;;;;;5093388;28;19920;-51